Time;durP1;ratioP1;P1;durP2;ratioP2;P2;SDS_P1;SDS_P2;PMS_P1;PMS_P2;Temp;Humidity;BMP_temperature;BMP_pressure;BME280_temperature;BME280_humidity;BME280_pressure;Samples;Min_cycle;Max_cycle;Signal;HPM_P1;HPM_P2
2021/05/24 00:01:37;;;;;;;5.33;3.50;;;;;;;;;;5054152;28;20049;-58
2021/05/24 00:04:05;;;;;;;6.73;3.27;;;;;;;;;;5053686;28;20047;-57
2021/05/24 00:06:32;;;;;;;5.53;3.17;;;;;;;;;;5053418;28;20025;-58
2021/05/24 00:08:59;;;;;;;5.10;3.03;;;;;;;;;;5053428;28;20029;-58
2021/05/24 00:11:26;;;;;;;7.03;2.60;;;;;;;;;;5053410;28;20052;-57
2021/05/24 00:13:56;;;;;;;5.00;3.40;;;;;;;;;;5053398;28;20053;-57
2021/05/24 00:16:24;;;;;;;5.80;3.17;;;;;;;;;;5053829;28;20017;-58
2021/05/24 00:18:53;;;;;;;3.97;2.63;;;;;;;;;;5053368;28;20029;-58
2021/05/24 00:21:23;;;;;;;3.70;2.20;;;;;;;;;;5053205;28;20021;-57
2021/05/24 00:23:51;;;;;;;4.53;2.73;;;;;;;;;;5053192;28;20052;-58
2021/05/24 00:26:18;;;;;;;4.60;2.40;;;;;;;;;;5053022;28;20416;-57
2021/05/24 00:28:45;;;;;;;6.50;2.60;;;;;;;;;;5053100;28;20357;-58
2021/05/24 00:31:12;;;;;;;5.57;2.20;;;;;;;;;;5053245;28;20021;-58
2021/05/24 00:33:39;;;;;;;4.67;2.10;;;;;;;;;;5053177;28;20024;-58
2021/05/24 00:36:06;;;;;;;3.43;2.00;;;;;;;;;;5052944;28;20108;-58
2021/05/24 00:38:33;;;;;;;5.43;2.03;;;;;;;;;;5053069;28;20036;-58
2021/05/24 00:40:59;;;;;;;3.90;2.07;;;;;;;;;;5052904;28;20027;-58
2021/05/24 00:43:26;;;;;;;6.33;1.90;;;;;;;;;;5052899;28;20056;-59
2021/05/24 00:45:53;;;;;;;2.83;1.63;;;;;;;;;;5052887;28;20032;-59
2021/05/24 00:48:20;;;;;;;4.43;2.30;;;;;;;;;;5052874;28;20049;-58
2021/05/24 00:50:47;;;;;;;3.20;1.80;;;;;;;;;;5053048;28;20052;-58
2021/05/24 00:53:14;;;;;;;3.73;1.90;;;;;;;;;;5052894;28;20028;-58
2021/05/24 00:55:41;;;;;;;3.47;2.30;;;;;;;;;;5052665;28;20383;-58
2021/05/24 00:58:16;;;;;;;3.00;1.87;;;;;;;;;;5052632;28;20044;-58
2021/05/24 01:00:57;;;;;;;3.20;2.10;;;;;;;;;;5053019;28;20033;-59
2021/05/24 01:03:24;;;;;;;3.53;1.87;;;;;;;;;;5052743;28;20380;-58
2021/05/24 01:05:51;;;;;;;3.37;1.70;;;;;;;;;;5052422;28;20116;-58
2021/05/24 01:08:18;;;;;;;3.03;1.97;;;;;;;;;;5052522;28;20029;-58
2021/05/24 01:10:45;;;;;;;3.00;2.00;;;;;;;;;;5052705;28;20021;-58
2021/05/24 01:13:13;;;;;;;5.37;2.10;;;;;;;;;;5052713;28;20066;-58
2021/05/24 01:15:40;;;;;;;4.70;1.83;;;;;;;;;;5052695;28;20032;-58
2021/05/24 01:18:08;;;;;;;3.73;2.10;;;;;;;;;;5052567;28;20029;-58
2021/05/24 01:20:35;;;;;;;3.27;2.20;;;;;;;;;;5052672;28;20086;-58
2021/05/24 01:25:29;;;;;;;4.00;2.10;;;;;;;;;;5052481;28;20048;-58
2021/05/24 01:27:55;;;;;;;7.43;2.70;;;;;;;;;;5052509;28;20031;-58
2021/05/24 01:30:22;;;;;;;5.67;2.33;;;;;;;;;;5056124;28;20075;-58
2021/05/24 01:32:49;;;;;;;3.60;2.10;;;;;;;;;;5056410;28;20029;-58
2021/05/24 01:35:16;;;;;;;4.00;2.43;;;;;;;;;;5056511;28;20056;-57
2021/05/24 01:37:43;;;;;;;4.73;2.97;;;;;;;;;;5056280;28;20059;-57
2021/05/24 01:40:11;;;;;;;4.27;2.67;;;;;;;;;;5056503;28;20039;-58
2021/05/24 01:42:37;;;;;;;4.93;2.90;;;;;;;;;;5056326;28;20104;-58
2021/05/24 01:45:05;;;;;;;6.13;2.93;;;;;;;;;;5056588;28;20033;-57
2021/05/24 01:47:32;;;;;;;4.67;3.00;;;;;;;;;;5056071;28;20028;-57
2021/05/24 01:49:58;;;;;;;7.23;3.43;;;;;;;;;;5056227;28;20426;-58
2021/05/24 01:52:25;;;;;;;6.63;3.10;;;;;;;;;;5056272;28;20020;-58
2021/05/24 01:54:52;;;;;;;5.03;2.90;;;;;;;;;;5056008;28;20064;-57
2021/05/24 01:57:19;;;;;;;5.57;3.47;;;;;;;;;;5056075;28;20025;-57
2021/05/24 01:59:46;;;;;;;5.87;2.80;;;;;;;;;;5055944;28;20104;-57
2021/05/24 02:02:13;;;;;;;10.00;4.30;;;;;;;;;;5056322;28;20057;-57
2021/05/24 02:04:40;;;;;;;5.60;4.20;;;;;;;;;;5055844;28;20395;-58
2021/05/24 02:07:16;;;;;;;7.53;4.50;;;;;;;;;;5056005;28;20175;-58
2021/05/24 02:09:55;;;;;;;7.00;4.90;;;;;;;;;;5055921;28;20029;-58
2021/05/24 02:12:30;;;;;;;6.47;4.10;;;;;;;;;;5055913;28;20021;-58
2021/05/24 02:15:03;;;;;;;9.17;4.77;;;;;;;;;;5055847;28;20017;-57
2021/05/24 02:17:35;;;;;;;6.67;4.40;;;;;;;;;;5055333;28;20025;-57
2021/05/24 02:20:07;;;;;;;5.03;3.73;;;;;;;;;;5055268;28;20029;-57
2021/05/24 02:22:35;;;;;;;6.10;3.50;;;;;;;;;;5055672;28;20040;-57
2021/05/24 02:25:04;;;;;;;7.17;4.07;;;;;;;;;;5055457;28;20499;-57
2021/05/24 02:27:31;;;;;;;8.67;4.77;;;;;;;;;;5055731;28;20033;-58
2021/05/24 02:29:59;;;;;;;6.83;3.50;;;;;;;;;;5055524;28;20475;-57
2021/05/24 02:32:26;;;;;;;6.40;3.97;;;;;;;;;;5055264;28;20021;-58
2021/05/24 02:34:53;;;;;;;10.73;4.40;;;;;;;;;;5055254;28;20391;-57
2021/05/24 02:37:24;;;;;;;19.70;5.67;;;;;;;;;;5055255;28;20029;-57
2021/05/24 02:39:54;;;;;;;7.67;4.00;;;;;;;;;;5053396;28;20037;-57
2021/05/24 02:42:27;;;;;;;6.03;3.70;;;;;;;;;;5054895;28;20079;-57
2021/05/24 02:45:05;;;;;;;7.83;3.83;;;;;;;;;;5055152;28;20087;-57
2021/05/24 02:47:35;;;;;;;8.27;3.70;;;;;;;;;;5055111;28;20112;-57
2021/05/24 02:50:08;;;;;;;8.20;4.17;;;;;;;;;;5054540;28;20028;-57
2021/05/24 02:52:35;;;;;;;7.93;4.03;;;;;;;;;;5054509;28;20033;-58
2021/05/24 02:55:03;;;;;;;6.17;2.90;;;;;;;;;;5054895;28;20029;-57
2021/05/24 02:57:31;;;;;;;6.70;3.50;;;;;;;;;;5054754;28;20555;-57
2021/05/24 02:59:57;;;;;;;5.60;4.00;;;;;;;;;;5054752;28;20415;-57
2021/05/24 03:02:27;;;;;;;5.27;3.63;;;;;;;;;;5055220;28;20044;-57
2021/05/24 03:04:54;;;;;;;8.93;3.70;;;;;;;;;;5054714;28;20033;-57
2021/05/24 03:07:21;;;;;;;8.77;4.30;;;;;;;;;;5054814;28;20028;-58
2021/05/24 03:09:49;;;;;;;7.30;4.00;;;;;;;;;;5054910;28;20108;-57
2021/05/24 03:12:19;;;;;;;6.77;4.10;;;;;;;;;;5054763;28;20483;-57
2021/05/24 03:14:46;;;;;;;10.07;4.70;;;;;;;;;;5054571;28;20040;-58
2021/05/24 03:17:13;;;;;;;10.30;4.53;;;;;;;;;;5054866;28;20051;-57
2021/05/24 03:19:40;;;;;;;13.00;5.10;;;;;;;;;;5054859;28;20032;-57
2021/05/24 03:22:07;;;;;;;9.27;4.50;;;;;;;;;;5054733;28;20036;-56
2021/05/24 03:24:33;;;;;;;14.77;4.80;;;;;;;;;;5054264;28;20033;-58
2021/05/24 03:27:00;;;;;;;8.30;3.73;;;;;;;;;;5054218;28;20017;-57
2021/05/24 03:29:27;;;;;;;10.20;4.07;;;;;;;;;;5054299;28;20117;-57
2021/05/24 03:31:54;;;;;;;6.33;3.80;;;;;;;;;;5054452;28;20025;-57
2021/05/24 03:34:21;;;;;;;11.00;4.43;;;;;;;;;;5054138;28;20487;-57
2021/05/24 03:36:48;;;;;;;7.80;3.80;;;;;;;;;;5054219;28;20468;-57
2021/05/24 03:39:14;;;;;;;7.63;4.33;;;;;;;;;;5054231;28;20389;-57
2021/05/24 03:41:55;;;;;;;11.33;4.57;;;;;;;;;;5053868;28;20033;-57
2021/05/24 03:44:22;;;;;;;8.63;5.07;;;;;;;;;;5053837;28;20021;-57
2021/05/24 03:46:48;;;;;;;11.73;5.20;;;;;;;;;;5053872;28;20025;-58
2021/05/24 03:49:15;;;;;;;13.83;5.50;;;;;;;;;;5054016;28;20528;-57
2021/05/24 03:51:42;;;;;;;9.73;5.33;;;;;;;;;;5053650;28;20037;-58
2021/05/24 03:54:09;;;;;;;11.73;5.63;;;;;;;;;;5053801;28;20025;-58
2021/05/24 03:56:36;;;;;;;10.13;5.23;;;;;;;;;;5053844;28;20464;-57
2021/05/24 03:59:03;;;;;;;11.57;4.90;;;;;;;;;;5053651;28;20501;-57
2021/05/24 04:01:30;;;;;;;7.83;4.93;;;;;;;;;;5054130;28;20045;-58
2021/05/24 04:03:57;;;;;;;8.57;4.53;;;;;;;;;;5053718;28;20028;-58
2021/05/24 04:06:26;;;;;;;6.27;4.33;;;;;;;;;;5053666;28;20072;-58
2021/05/24 04:08:53;;;;;;;7.83;5.07;;;;;;;;;;5053487;28;20025;-58
2021/05/24 04:11:20;;;;;;;9.00;5.30;;;;;;;;;;5053656;28;20025;-58
2021/05/24 04:13:51;;;;;;;9.23;5.17;;;;;;;;;;5053412;28;20024;-58
2021/05/24 04:16:18;;;;;;;8.80;4.80;;;;;;;;;;5053299;28;20118;-58
2021/05/24 04:18:48;;;;;;;10.07;5.57;;;;;;;;;;5053316;28;20029;-58
2021/05/24 04:21:17;;;;;;;7.97;4.60;;;;;;;;;;5053296;28;20036;-58
2021/05/24 04:23:44;;;;;;;7.47;4.53;;;;;;;;;;5035470;28;20025;-58
2021/05/24 04:26:12;;;;;;;11.73;5.33;;;;;;;;;;5035303;28;20033;-58
2021/05/24 04:28:38;;;;;;;11.00;5.60;;;;;;;;;;5053308;28;20025;-58
2021/05/24 04:31:05;;;;;;;12.17;4.93;;;;;;;;;;5053242;28;20024;-58
2021/05/24 04:33:34;;;;;;;6.27;4.00;;;;;;;;;;5053133;28;20068;-58
2021/05/24 04:36:01;;;;;;;8.30;3.80;;;;;;;;;;5052581;28;20357;-58
2021/05/24 04:38:28;;;;;;;10.47;4.27;;;;;;;;;;5052982;28;20029;-58
2021/05/24 04:40:55;;;;;;;8.67;4.30;;;;;;;;;;5052888;28;20124;-58
2021/05/24 04:43:27;;;;;;;8.70;4.47;;;;;;;;;;5053011;28;20021;-58
2021/05/24 04:45:54;;;;;;;7.40;4.90;;;;;;;;;;5052704;28;20068;-58
2021/05/24 04:48:21;;;;;;;7.87;5.07;;;;;;;;;;5053010;28;20056;-58
2021/05/24 04:50:47;;;;;;;11.83;4.90;;;;;;;;;;5052815;28;20087;-58
2021/05/24 04:53:14;;;;;;;10.80;4.37;;;;;;;;;;5052769;28;20029;-57
2021/05/24 04:55:41;;;;;;;6.70;4.60;;;;;;;;;;5052952;28;20104;-57
2021/05/24 04:58:08;;;;;;;9.43;4.80;;;;;;;;;;5052736;28;20029;-58
2021/05/24 05:00:35;;;;;;;12.63;5.00;;;;;;;;;;5052613;28;20384;-58
2021/05/24 05:03:01;;;;;;;15.80;5.20;;;;;;;;;;5053139;28;20060;-56
2021/05/24 05:05:28;;;;;;;7.00;5.07;;;;;;;;;;5052311;28;20048;-58
2021/05/24 05:07:55;;;;;;;10.87;4.87;;;;;;;;;;5052604;28;20057;-58
2021/05/24 05:10:22;;;;;;;15.80;5.17;;;;;;;;;;5052772;28;20033;-58
2021/05/24 05:12:49;;;;;;;8.13;4.97;;;;;;;;;;5052676;28;20020;-58
2021/05/24 05:15:15;;;;;;;9.27;4.63;;;;;;;;;;5052571;28;20021;-57
2021/05/24 05:17:42;;;;;;;9.50;4.70;;;;;;;;;;5052538;28;20032;-58
2021/05/24 05:20:09;;;;;;;6.57;4.27;;;;;;;;;;5052411;28;20029;-58
2021/05/24 05:22:36;;;;;;;7.07;4.50;;;;;;;;;;5052490;28;20033;-58
2021/05/24 05:25:03;;;;;;;8.27;4.60;;;;;;;;;;5052421;28;20424;-58
2021/05/24 05:27:30;;;;;;;8.70;4.73;;;;;;;;;;5052434;28;20029;-58
2021/05/24 05:29:57;;;;;;;7.87;4.07;;;;;;;;;;5052603;28;20029;-58
2021/05/24 05:32:24;;;;;;;8.30;4.57;;;;;;;;;;5052361;28;20463;-58
2021/05/24 05:34:51;;;;;;;8.27;5.07;;;;;;;;;;5052541;28;20066;-58
2021/05/24 05:37:20;;;;;;;8.30;5.37;;;;;;;;;;5052256;28;20025;-58
2021/05/24 05:39:50;;;;;;;6.93;4.87;;;;;;;;;;5052418;28;20135;-58
2021/05/24 05:42:17;;;;;;;8.00;4.50;;;;;;;;;;5052294;28;20029;-58
2021/05/24 05:44:43;;;;;;;9.73;5.07;;;;;;;;;;5052641;28;20033;-58
2021/05/24 05:47:10;;;;;;;6.63;4.63;;;;;;;;;;5052241;28;20017;-58
2021/05/24 05:49:37;;;;;;;8.80;5.13;;;;;;;;;;5052310;28;20037;-58
2021/05/24 05:52:05;;;;;;;7.60;4.70;;;;;;;;;;5034368;28;20511;-58
2021/05/24 05:54:32;;;;;;;6.80;4.80;;;;;;;;;;5052588;28;20051;-58
2021/05/24 05:56:58;;;;;;;12.63;6.50;;;;;;;;;;5052060;28;20060;-58
2021/05/24 05:59:25;;;;;;;5.73;4.63;;;;;;;;;;5052231;28;20017;-58
2021/05/24 06:01:52;;;;;;;6.90;4.73;;;;;;;;;;5052615;28;20044;-59
2021/05/24 06:04:19;;;;;;;7.57;5.10;;;;;;;;;;5052165;28;20375;-58
2021/05/24 06:06:46;;;;;;;8.17;5.07;;;;;;;;;;5052133;28;20021;-58
2021/05/24 06:09:12;;;;;;;7.57;4.63;;;;;;;;;;5052129;28;20096;-58
2021/05/24 06:11:42;;;;;;;7.23;4.93;;;;;;;;;;5052089;28;20021;-58
2021/05/24 06:14:09;;;;;;;6.70;4.97;;;;;;;;;;5052132;28;20052;-58
2021/05/24 06:16:35;;;;;;;7.53;4.93;;;;;;;;;;5055732;28;20066;-56
2021/05/24 06:19:02;;;;;;;8.53;5.20;;;;;;;;;;5056362;28;20115;-58
2021/05/24 06:21:29;;;;;;;7.20;5.03;;;;;;;;;;5056140;28;20044;-57
2021/05/24 06:23:56;;;;;;;8.53;5.37;;;;;;;;;;5055787;28;20037;-58
2021/05/24 06:26:22;;;;;;;7.70;5.40;;;;;;;;;;5055240;28;20074;-57
2021/05/24 06:28:49;;;;;;;10.83;4.73;;;;;;;;;;5055371;28;20040;-58
2021/05/24 06:31:17;;;;;;;12.03;4.97;;;;;;;;;;5055429;28;20479;-58
2021/05/24 06:33:44;;;;;;;7.93;5.43;;;;;;;;;;5055461;28;20084;-58
2021/05/24 06:36:11;;;;;;;7.20;4.60;;;;;;;;;;5055343;28;20032;-58
2021/05/24 06:38:37;;;;;;;13.00;5.03;;;;;;;;;;5055354;28;20032;-58
2021/05/24 06:41:04;;;;;;;7.13;5.10;;;;;;;;;;5055259;28;20384;-58
2021/05/24 06:43:31;;;;;;;9.73;5.70;;;;;;;;;;5055310;28;20033;-58
2021/05/24 06:45:58;;;;;;;8.77;5.60;;;;;;;;;;5055015;28;20399;-58
2021/05/24 06:48:25;;;;;;;9.40;5.40;;;;;;;;;;5055051;28;20032;-58
2021/05/24 06:50:51;;;;;;;8.47;4.63;;;;;;;;;;5055034;28;20080;-58
2021/05/24 06:53:18;;;;;;;7.13;5.43;;;;;;;;;;5055043;28;20476;-58
2021/05/24 06:55:45;;;;;;;7.23;5.87;;;;;;;;;;5054981;28;20017;-58
2021/05/24 06:58:12;;;;;;;10.77;5.23;;;;;;;;;;5054882;28;20033;-58
2021/05/24 07:00:38;;;;;;;6.33;4.67;;;;;;;;;;5054993;28;20067;-58
2021/05/24 07:03:05;;;;;;;7.90;5.50;;;;;;;;;;5055171;28;20056;-58
2021/05/24 07:05:32;;;;;;;7.27;5.47;;;;;;;;;;5054719;28;20689;-57
2021/05/24 07:08:00;;;;;;;7.83;5.27;;;;;;;;;;5054875;28;20096;-58
2021/05/24 07:10:27;;;;;;;8.87;5.77;;;;;;;;;;5054850;28;20484;-58
2021/05/24 07:12:54;;;;;;;8.97;5.60;;;;;;;;;;5054844;28;20096;-58
2021/05/24 07:15:21;;;;;;;8.03;6.30;;;;;;;;;;5054732;28;20033;-58
2021/05/24 07:17:48;;;;;;;7.13;5.03;;;;;;;;;;5054691;28;20025;-58
2021/05/24 07:20:15;;;;;;;8.50;5.20;;;;;;;;;;5054426;28;20387;-58
2021/05/24 07:22:41;;;;;;;7.83;5.60;;;;;;;;;;5054442;28;20112;-58
2021/05/24 07:25:09;;;;;;;7.97;5.80;;;;;;;;;;5054236;28;20431;-58
2021/05/24 07:27:35;;;;;;;8.17;5.00;;;;;;;;;;5053959;28;20029;-58
2021/05/24 07:30:02;;;;;;;7.00;4.50;;;;;;;;;;5054458;28;20032;-58
2021/05/24 07:32:29;;;;;;;7.17;5.47;;;;;;;;;;5054269;28;20033;-58
2021/05/24 07:34:56;;;;;;;7.60;5.70;;;;;;;;;;5054174;28;20478;-58
2021/05/24 07:37:23;;;;;;;9.40;6.40;;;;;;;;;;5054188;28;20099;-58
2021/05/24 07:39:49;;;;;;;8.53;5.63;;;;;;;;;;5054193;28;20056;-58
2021/05/24 07:42:16;;;;;;;9.10;5.63;;;;;;;;;;5054204;28;20022;-58
2021/05/24 07:44:43;;;;;;;7.33;5.03;;;;;;;;;;5053908;28;20147;-58
2021/05/24 07:47:10;;;;;;;7.27;5.47;;;;;;;;;;5053848;28;20017;-58
2021/05/24 07:49:36;;;;;;;10.47;5.43;;;;;;;;;;5053920;28;20029;-58
2021/05/24 07:52:03;;;;;;;10.47;6.00;;;;;;;;;;5054068;28;20029;-57
2021/05/24 07:54:30;;;;;;;11.00;6.57;;;;;;;;;;5053935;28;20025;-58
2021/05/24 07:56:57;;;;;;;9.13;6.60;;;;;;;;;;5053826;28;20029;-58
2021/05/24 07:59:24;;;;;;;11.60;7.27;;;;;;;;;;5053884;28;20033;-58
2021/05/24 08:01:51;;;;;;;9.20;5.87;;;;;;;;;;5054040;28;20478;-58
2021/05/24 08:04:17;;;;;;;8.07;6.33;;;;;;;;;;5053594;28;20064;-58
2021/05/24 08:06:44;;;;;;;7.77;5.87;;;;;;;;;;5053586;28;20041;-58
2021/05/24 08:09:11;;;;;;;7.37;5.10;;;;;;;;;;5053538;28;20385;-58
2021/05/24 08:11:38;;;;;;;7.17;5.93;;;;;;;;;;5053897;28;20021;-58
2021/05/24 08:14:06;;;;;;;7.73;5.73;;;;;;;;;;5053598;28;20021;-58
2021/05/24 08:16:33;;;;;;;7.33;6.37;;;;;;;;;;5053606;28;20025;-58
2021/05/24 08:18:59;;;;;;;8.00;5.70;;;;;;;;;;5053482;28;20033;-58
2021/05/24 08:21:26;;;;;;;8.57;6.40;;;;;;;;;;5053369;28;20039;-58
2021/05/24 08:23:53;;;;;;;10.20;6.27;;;;;;;;;;5053238;28;20100;-57
2021/05/24 08:26:20;;;;;;;8.73;5.87;;;;;;;;;;5053400;28;20037;-58
2021/05/24 08:28:47;;;;;;;7.90;5.40;;;;;;;;;;5053233;28;20025;-58
2021/05/24 08:31:13;;;;;;;10.00;6.90;;;;;;;;;;5053054;28;20024;-58
2021/05/24 08:33:40;;;;;;;7.13;5.57;;;;;;;;;;5053290;28;20050;-58
2021/05/24 08:36:07;;;;;;;11.87;7.33;;;;;;;;;;5052977;28;20040;-58
2021/05/24 08:38:34;;;;;;;9.27;6.40;;;;;;;;;;5052112;28;20025;-58
2021/05/24 08:41:06;;;;;;;11.77;6.87;;;;;;;;;;5053105;28;20071;-58
2021/05/24 08:43:34;;;;;;;11.70;7.80;;;;;;;;;;5053031;28;20094;-58
2021/05/24 08:46:01;;;;;;;8.90;7.10;;;;;;;;;;5052700;28;20041;-56
2021/05/24 08:48:28;;;;;;;6.80;5.53;;;;;;;;;;5052824;28;20029;-58
2021/05/24 08:50:55;;;;;;;11.10;6.23;;;;;;;;;;5052846;28;20491;-58
2021/05/24 08:53:22;;;;;;;8.37;5.93;;;;;;;;;;5052836;28;20025;-58
2021/05/24 08:55:49;;;;;;;12.20;6.37;;;;;;;;;;5052668;28;20547;-58
2021/05/24 08:58:16;;;;;;;8.97;6.00;;;;;;;;;;5052729;28;20467;-58
2021/05/24 09:00:43;;;;;;;8.17;6.17;;;;;;;;;;5052761;28;20029;-58
2021/05/24 09:03:36;;;;;;;9.53;6.50;;;;;;;;;;5053185;28;20052;-58
2021/05/24 09:06:09;;;;;;;12.37;6.53;;;;;;;;;;5048565;28;20048;-58
2021/05/24 09:08:37;;;;;;;8.20;6.27;;;;;;;;;;5052648;28;20068;-58
2021/05/24 09:11:04;;;;;;;8.00;5.70;;;;;;;;;;5052513;28;20063;-58
2021/05/24 09:13:32;;;;;;;10.27;7.43;;;;;;;;;;5052739;28;20028;-58
2021/05/24 09:15:59;;;;;;;9.40;6.03;;;;;;;;;;5052579;28;20070;-58
2021/05/24 09:18:26;;;;;;;7.43;5.37;;;;;;;;;;5052681;28;20105;-58
2021/05/24 09:20:54;;;;;;;9.03;5.93;;;;;;;;;;5052446;28;20506;-58
2021/05/24 09:23:22;;;;;;;9.47;6.07;;;;;;;;;;5052419;28;20025;-58
2021/05/24 09:25:52;;;;;;;10.47;7.07;;;;;;;;;;5052409;28;20068;-58
2021/05/24 09:28:25;;;;;;;10.00;7.07;;;;;;;;;;5052406;28;20021;-58
2021/05/24 09:30:56;;;;;;;10.93;5.87;;;;;;;;;;5052512;28;20021;-58
2021/05/24 09:33:23;;;;;;;11.17;6.20;;;;;;;;;;5052329;28;20051;-58
2021/05/24 09:35:51;;;;;;;8.40;5.80;;;;;;;;;;5052424;28;20036;-58
2021/05/24 09:38:19;;;;;;;9.47;6.63;;;;;;;;;;5052379;28;20025;-58
2021/05/24 09:40:53;;;;;;;7.73;5.60;;;;;;;;;;5052285;28;20128;-58
2021/05/24 09:43:19;;;;;;;8.63;6.27;;;;;;;;;;5052340;28;20025;-58
2021/05/24 09:45:48;;;;;;;8.97;6.43;;;;;;;;;;5052226;28;20116;-58
2021/05/24 09:48:15;;;;;;;8.57;6.53;;;;;;;;;;5052155;28;20027;-58
2021/05/24 09:50:42;;;;;;;8.27;6.10;;;;;;;;;;5054805;28;20032;-58
2021/05/24 09:53:09;;;;;;;8.63;6.60;;;;;;;;;;5056136;28;20025;-58
2021/05/24 09:55:37;;;;;;;10.37;6.83;;;;;;;;;;5056188;28;20032;-58
2021/05/24 09:58:11;;;;;;;7.90;6.20;;;;;;;;;;5056141;28;20021;-58
2021/05/24 10:00:52;;;;;;;8.23;6.57;;;;;;;;;;5056167;28;20052;-58
2021/05/24 10:03:30;;;;;;;9.33;6.37;;;;;;;;;;5056397;28;20565;-58
2021/05/24 10:05:57;;;;;;;12.87;7.57;;;;;;;;;;5055757;28;20523;-58
2021/05/24 10:08:25;;;;;;;7.17;5.97;;;;;;;;;;5055890;28;20017;-58
2021/05/24 10:10:51;;;;;;;10.13;6.13;;;;;;;;;;5056156;28;20044;-58
2021/05/24 10:13:18;;;;;;;9.93;6.80;;;;;;;;;;5055748;28;20029;-58
2021/05/24 10:15:48;;;;;;;8.33;6.30;;;;;;;;;;5055626;28;20404;-58
2021/05/24 10:18:14;;;;;;;7.13;5.30;;;;;;;;;;5055747;28;20123;-58
2021/05/24 10:20:41;;;;;;;9.33;6.53;;;;;;;;;;5055623;28;20021;-58
2021/05/24 10:23:08;;;;;;;10.03;6.17;;;;;;;;;;5055529;28;20048;-58
2021/05/24 10:25:35;;;;;;;10.23;5.53;;;;;;;;;;5055445;28;20241;-58
2021/05/24 10:28:03;;;;;;;8.90;6.20;;;;;;;;;;5055535;28;20068;-58
2021/05/24 10:30:30;;;;;;;8.70;6.60;;;;;;;;;;5055544;28;20053;-58
2021/05/24 10:33:01;;;;;;;8.70;6.17;;;;;;;;;;5055469;28;20075;-58
2021/05/24 10:35:34;;;;;;;11.13;6.47;;;;;;;;;;5055194;28;20106;-58
2021/05/24 10:38:20;;;;;;;9.77;5.70;;;;;;;;;;5055321;28;20033;-58
2021/05/24 10:40:47;;;;;;;11.47;6.90;;;;;;;;;;5055384;28;20051;-58
2021/05/24 10:43:19;;;;;;;8.70;6.53;;;;;;;;;;5055338;28;20036;-58
2021/05/24 10:45:48;;;;;;;11.57;6.73;;;;;;;;;;5038191;28;20399;-58
2021/05/24 10:48:19;;;;;;;10.07;6.70;;;;;;;;;;5055185;28;20049;-58
2021/05/24 10:51:05;;;;;;;9.57;6.70;;;;;;;;;;5054995;28;20396;-58
2021/05/24 10:53:41;;;;;;;14.23;7.23;;;;;;;;;;5055022;28;20468;-58
2021/05/24 10:56:16;;;;;;;14.73;6.00;;;;;;;;;;5054926;28;20100;-58
2021/05/24 10:58:43;;;;;;;10.05;7.28;;;;;;;;;;5055053;28;20037;-58
2021/05/24 11:01:10;;;;;;;8.23;7.00;;;;;;;;;;5054285;28;20021;-57
2021/05/24 11:03:42;;;;;;;10.40;7.67;;;;;;;;;;5055219;28;20048;-58
2021/05/24 11:06:13;;;;;;;9.27;6.83;;;;;;;;;;5054841;28;20068;-58
2021/05/24 11:08:42;;;;;;;14.13;6.47;;;;;;;;;;5054757;28;20052;-58
2021/05/24 11:11:25;;;;;;;10.43;6.83;;;;;;;;;;5054778;28;20055;-58
2021/05/24 11:14:09;;;;;;;8.77;6.17;;;;;;;;;;5054748;28;20033;-58
2021/05/24 11:16:38;;;;;;;10.97;6.93;;;;;;;;;;5054615;28;20025;-58
2021/05/24 11:19:11;;;;;;;11.30;7.73;;;;;;;;;;5054819;28;20025;-58
2021/05/24 11:21:39;;;;;;;9.33;6.07;;;;;;;;;;5054606;28;20387;-58
2021/05/24 11:24:34;;;;;;;11.20;6.50;;;;;;;;;;5054418;28;20029;-58
2021/05/24 11:27:07;;;;;;;8.55;6.80;;;;;;;;;;5054375;28;20115;-58
2021/05/24 11:29:34;;;;;;;8.30;6.60;;;;;;;;;;5054395;28;20041;-58
2021/05/24 11:32:00;;;;;;;7.63;6.13;;;;;;;;;;5054295;28;20444;-58
2021/05/24 11:34:29;;;;;;;8.73;6.73;;;;;;;;;;5054344;28;20380;-58
2021/05/24 11:36:59;;;;;;;8.17;6.20;;;;;;;;;;5054253;28;20013;-58
2021/05/24 11:39:33;;;;;;;12.97;6.53;;;;;;;;;;5054083;28;20436;-58
2021/05/24 11:42:01;;;;;;;8.10;6.10;;;;;;;;;;5054108;28;20047;-58
2021/05/24 11:44:33;;;;;;;9.77;6.00;;;;;;;;;;5054059;28;20013;-58
2021/05/24 11:47:01;;;;;;;8.30;6.30;;;;;;;;;;5053936;28;20429;-58
2021/05/24 11:49:34;;;;;;;10.30;6.33;;;;;;;;;;5053987;28;20029;-58
2021/05/24 11:52:01;;;;;;;8.70;6.50;;;;;;;;;;5054060;28;20017;-58
2021/05/24 11:54:28;;;;;;;8.40;7.10;;;;;;;;;;5054033;28;20108;-58
2021/05/24 11:56:56;;;;;;;8.67;6.27;;;;;;;;;;5053845;28;20029;-58
2021/05/24 11:59:27;;;;;;;15.20;8.93;;;;;;;;;;5053994;28;20021;-58
2021/05/24 12:01:54;;;;;;;10.73;7.53;;;;;;;;;;5053716;28;20025;-57
2021/05/24 12:04:22;;;;;;;11.57;7.00;;;;;;;;;;5053418;28;20163;-58
2021/05/24 12:06:51;;;;;;;9.47;6.83;;;;;;;;;;5053593;28;20108;-58
2021/05/24 12:09:34;;;;;;;9.63;6.10;;;;;;;;;;5053801;28;20032;-58
2021/05/24 12:12:02;;;;;;;12.13;6.93;;;;;;;;;;5053656;28;20028;-58
2021/05/24 12:14:29;;;;;;;13.13;7.93;;;;;;;;;;5053482;28;20036;-58
2021/05/24 12:16:55;;;;;;;11.43;8.20;;;;;;;;;;5053656;28;20388;-58
2021/05/24 12:19:25;;;;;;;11.63;7.47;;;;;;;;;;5053528;28;20025;-58
2021/05/24 12:21:54;;;;;;;15.60;9.00;;;;;;;;;;5053585;28;20431;-58
2021/05/24 12:24:20;;;;;;;18.73;11.80;;;;;;;;;;5053445;28;20070;-58
2021/05/24 12:26:49;;;;;;;14.43;11.27;;;;;;;;;;5053229;28;20112;-58
2021/05/24 12:29:19;;;;;;;12.17;9.00;;;;;;;;;;5053304;28;20044;-58
2021/05/24 12:31:46;;;;;;;16.10;10.03;;;;;;;;;;5053239;28;20044;-58
2021/05/24 12:34:14;;;;;;;16.73;10.47;;;;;;;;;;5053328;28;20412;-58
2021/05/24 12:36:53;;;;;;;13.83;9.30;;;;;;;;;;5053234;28;20418;-58
2021/05/24 12:39:20;;;;;;;15.50;10.00;;;;;;;;;;5053220;28;20096;-58
2021/05/24 12:41:49;;;;;;;16.10;10.50;;;;;;;;;;5053049;28;20021;-58
2021/05/24 12:44:18;;;;;;;14.70;10.47;;;;;;;;;;5053107;28;20021;-58
2021/05/24 12:46:45;;;;;;;15.87;11.07;;;;;;;;;;5035236;28;20127;-58
2021/05/24 12:49:11;;;;;;;15.23;10.13;;;;;;;;;;5052968;28;20052;-58
2021/05/24 12:51:39;;;;;;;11.47;8.73;;;;;;;;;;5053026;28;20062;-57
2021/05/24 12:54:07;;;;;;;14.60;8.13;;;;;;;;;;5052961;28;20059;-58
2021/05/24 12:56:36;;;;;;;20.93;10.80;;;;;;;;;;5052766;28;20091;-58
2021/05/24 12:59:04;;;;;;;12.37;10.33;;;;;;;;;;5052969;28;20021;-58
2021/05/24 13:01:32;;;;;;;17.20;9.07;;;;;;;;;;5052773;28;20159;-58
2021/05/24 13:04:02;;;;;;;14.73;9.43;;;;;;;;;;5053205;28;20048;-58
2021/05/24 13:06:29;;;;;;;16.73;9.47;;;;;;;;;;5052774;28;20044;-58
2021/05/24 13:09:05;;;;;;;15.77;8.87;;;;;;;;;;5052738;28;20028;-58
2021/05/24 13:11:49;;;;;;;9.80;8.23;;;;;;;;;;5052962;28;20029;-58
2021/05/24 13:14:31;;;;;;;10.47;7.77;;;;;;;;;;5035028;28;20025;-58
2021/05/24 13:17:48;;;;;;;14.27;8.33;;;;;;;;;;5052701;28;20029;-58
2021/05/24 13:20:40;;;;;;;12.57;8.93;;;;;;;;;;5045610;28;20036;-58
2021/05/24 13:31:01;;;;;;;15.05;8.90;;;;;;;;;;5056797;28;20061;-58
2021/05/24 13:33:33;;;;;;;14.87;10.10;;;;;;;;;;5056634;28;20173;-59
2021/05/24 13:36:16;;;;;;;15.00;9.50;;;;;;;;;;5056589;28;20087;-58
2021/05/24 13:39:24;;;;;;;12.67;8.00;;;;;;;;;;5056679;28;20025;-58
2021/05/24 13:42:02;;;;;;;10.90;7.30;;;;;;;;;;5054351;28;20109;-58
2021/05/24 13:53:43;;;;;;;8.23;6.50;;;;;;;;;;5056228;28;20059;-58
2021/05/24 13:56:20;;;;;;;8.13;6.00;;;;;;;;;;5056170;28;20059;-59
2021/05/24 13:58:47;;;;;;;8.03;5.80;;;;;;;;;;5056223;28;20021;-59
2021/05/24 14:01:17;;;;;;;7.93;5.70;;;;;;;;;;5056035;28;20067;-60
2021/05/24 14:03:57;;;;;;;8.53;6.37;;;;;;;;;;5056922;28;20053;-60
2021/05/24 14:06:33;;;;;;;8.53;5.60;;;;;;;;;;5055236;28;20416;-59
2021/05/24 14:09:06;;;;;;;9.80;5.73;;;;;;;;;;5055993;28;20017;-57
2021/05/24 14:11:49;;;;;;;;;;;;;;;;;;;;;
2021/05/24 14:14:26;;;;;;;6.37;5.03;;;;;;;;;;5053591;28;20038;-58
2021/05/24 14:16:53;;;;;;;7.80;6.20;;;;;;;;;;5036794;28;20041;-59
2021/05/24 14:19:34;;;;;;;11.83;6.10;;;;;;;;;;5055688;28;20037;-57
2021/05/24 14:22:19;;;;;;;8.10;5.20;;;;;;;;;;5055892;28;20045;-58
2021/05/24 14:24:46;;;;;;;12.02;5.25;;;;;;;;;;5055547;28;20108;-57
2021/05/24 14:27:14;;;;;;;8.97;6.93;;;;;;;;;;5055757;28;20052;-58
2021/05/24 14:29:41;;;;;;;10.03;5.57;;;;;;;;;;5055553;28;20099;-59
2021/05/24 14:32:08;;;;;;;8.70;5.10;;;;;;;;;;5055551;28;20025;-58
2021/05/24 14:34:34;;;;;;;7.10;5.30;;;;;;;;;;5055417;28;20025;-59
2021/05/24 14:37:01;;;;;;;8.10;4.70;;;;;;;;;;5055628;28;20155;-58
2021/05/24 14:39:29;;;;;;;6.83;4.50;;;;;;;;;;5055302;28;20108;-58
2021/05/24 14:41:56;;;;;;;6.60;3.93;;;;;;;;;;5055281;28;20372;-59
2021/05/24 14:44:22;;;;;;;5.17;3.77;;;;;;;;;;5055258;28;20029;-57
2021/05/24 14:46:50;;;;;;;8.53;4.27;;;;;;;;;;5055281;28;20060;-57
2021/05/24 14:49:17;;;;;;;6.70;4.83;;;;;;;;;;5055264;28;20057;-57
2021/05/24 14:51:45;;;;;;;6.00;4.40;;;;;;;;;;5055065;28;20037;-57
2021/05/24 14:54:12;;;;;;;6.10;4.47;;;;;;;;;;5055239;28;20045;-58
2021/05/24 14:56:39;;;;;;;5.97;4.33;;;;;;;;;;5055190;28;20024;-57
2021/05/24 14:59:05;;;;;;;5.43;3.83;;;;;;;;;;5055310;28;20029;-58
2021/05/24 15:01:32;;;;;;;5.70;3.90;;;;;;;;;;5055062;28;20037;-59
2021/05/24 15:03:59;;;;;;;8.37;4.00;;;;;;;;;;5055230;28;20053;-56
2021/05/24 15:06:38;;;;;;;5.70;3.53;;;;;;;;;;5054806;28;20041;-58
2021/05/24 15:09:11;;;;;;;7.93;3.90;;;;;;;;;;5038654;28;20044;-58
2021/05/24 15:11:37;;;;;;;5.13;3.67;;;;;;;;;;5054801;28;20029;-59